sensor_id;sensor_type;location;lat;lon;timestamp;P1;durP1;ratioP1;P2;durP2;ratioP2
78820;SDS011;68171;13.882;99.692;2023-10-19T00:00:51;20.55;;;14.90;;
78820;SDS011;68171;13.882;99.692;2023-10-19T00:01:59;21.13;;;14.57;;
78820;SDS011;68171;13.882;99.692;2023-10-19T00:03:08;17.98;;;14.15;;
78820;SDS011;68171;13.882;99.692;2023-10-19T00:04:15;21.52;;;14.02;;
78820;SDS011;68171;13.882;99.692;2023-10-19T00:05:20;18.10;;;13.18;;
78820;SDS011;68171;13.882;99.692;2023-10-19T00:06:29;21.80;;;14.77;;
78820;SDS011;68171;13.882;99.692;2023-10-19T00:07:36;20.10;;;14.23;;
78820;SDS011;68171;13.882;99.692;2023-10-19T00:08:41;19.58;;;14.75;;
78820;SDS011;68171;13.882;99.692;2023-10-19T00:09:49;19.42;;;14.85;;
78820;SDS011;68171;13.882;99.692;2023-10-19T00:10:59;21.02;;;14.32;;
78820;SDS011;68171;13.882;99.692;2023-10-19T00:12:06;19.75;;;14.55;;
78820;SDS011;68171;13.882;99.692;2023-10-19T00:13:14;22.65;;;16.33;;
78820;SDS011;68171;13.882;99.692;2023-10-19T00:14:22;24.13;;;15.30;;
78820;SDS011;68171;13.882;99.692;2023-10-19T00:15:31;20.63;;;14.05;;
78820;SDS011;68171;13.882;99.692;2023-10-19T00:16:38;19.17;;;13.65;;
78820;SDS011;68171;13.882;99.692;2023-10-19T00:17:48;21.23;;;14.97;;
78820;SDS011;68171;13.882;99.692;2023-10-19T00:18:59;21.38;;;14.25;;
78820;SDS011;68171;13.882;99.692;2023-10-19T00:20:05;23.27;;;14.32;;
78820;SDS011;68171;13.882;99.692;2023-10-19T00:21:26;19.13;;;13.93;;
78820;SDS011;68171;13.882;99.692;2023-10-19T00:22:32;17.67;;;13.38;;
78820;SDS011;68171;13.882;99.692;2023-10-19T00:23:39;20.33;;;15.60;;
78820;SDS011;68171;13.882;99.692;2023-10-19T00:24:45;22.50;;;16.08;;
78820;SDS011;68171;13.882;99.692;2023-10-19T00:25:53;22.10;;;15.43;;
78820;SDS011;68171;13.882;99.692;2023-10-19T00:26:59;19.95;;;14.23;;
78820;SDS011;68171;13.882;99.692;2023-10-19T00:28:09;21.35;;;14.52;;
78820;SDS011;68171;13.882;99.692;2023-10-19T00:29:19;19.87;;;13.67;;
78820;SDS011;68171;13.882;99.692;2023-10-19T00:30:34;21.45;;;14.38;;
78820;SDS011;68171;13.882;99.692;2023-10-19T00:31:39;18.67;;;13.73;;
78820;SDS011;68171;13.882;99.692;2023-10-19T00:32:45;21.20;;;14.13;;
78820;SDS011;68171;13.882;99.692;2023-10-19T00:33:51;20.63;;;14.23;;
78820;SDS011;68171;13.882;99.692;2023-10-19T00:34:59;22.17;;;15.23;;
78820;SDS011;68171;13.882;99.692;2023-10-19T00:36:12;22.85;;;16.80;;
78820;SDS011;68171;13.882;99.692;2023-10-19T00:37:19;24.95;;;17.23;;
78820;SDS011;68171;13.882;99.692;2023-10-19T00:38:29;27.73;;;17.95;;
78820;SDS011;68171;13.882;99.692;2023-10-19T00:39:51;20.65;;;16.15;;
78820;SDS011;68171;13.882;99.692;2023-10-19T00:40:58;22.77;;;16.00;;
78820;SDS011;68171;13.882;99.692;2023-10-19T00:42:24;22.52;;;15.40;;
78820;SDS011;68171;13.882;99.692;2023-10-19T00:43:34;21.30;;;15.57;;
78820;SDS011;68171;13.882;99.692;2023-10-19T00:44:41;22.33;;;15.55;;
78820;SDS011;68171;13.882;99.692;2023-10-19T00:45:53;20.75;;;15.05;;
78820;SDS011;68171;13.882;99.692;2023-10-19T00:46:58;21.88;;;16.38;;
78820;SDS011;68171;13.882;99.692;2023-10-19T00:48:07;23.70;;;15.35;;
78820;SDS011;68171;13.882;99.692;2023-10-19T00:49:14;20.48;;;15.00;;
78820;SDS011;68171;13.882;99.692;2023-10-19T00:50:23;22.45;;;16.50;;
78820;SDS011;68171;13.882;99.692;2023-10-19T00:51:31;20.55;;;15.43;;
78820;SDS011;68171;13.882;99.692;2023-10-19T00:53:07;21.00;;;14.23;;
78820;SDS011;68171;13.882;99.692;2023-10-19T00:54:17;18.90;;;14.25;;
78820;SDS011;68171;13.882;99.692;2023-10-19T00:55:30;19.65;;;14.05;;
78820;SDS011;68171;13.882;99.692;2023-10-19T00:56:37;18.83;;;14.60;;
78820;SDS011;68171;13.882;99.692;2023-10-19T00:57:48;19.52;;;15.02;;
78820;SDS011;68171;13.882;99.692;2023-10-19T00:58:53;20.98;;;14.82;;
78820;SDS011;68171;13.882;99.692;2023-10-19T01:00:20;17.58;;;13.48;;
78820;SDS011;68171;13.882;99.692;2023-10-19T01:01:33;18.80;;;13.60;;
78820;SDS011;68171;13.882;99.692;2023-10-19T01:02:47;17.45;;;13.60;;
78820;SDS011;68171;13.882;99.692;2023-10-19T01:03:55;17.17;;;13.43;;
78820;SDS011;68171;13.882;99.692;2023-10-19T01:05:02;19.20;;;13.00;;
78820;SDS011;68171;13.882;99.692;2023-10-19T01:06:11;19.50;;;13.50;;
78820;SDS011;68171;13.882;99.692;2023-10-19T01:07:18;18.35;;;13.82;;
78820;SDS011;68171;13.882;99.692;2023-10-19T01:08:26;19.13;;;13.20;;
78820;SDS011;68171;13.882;99.692;2023-10-19T01:09:46;20.40;;;12.77;;
78820;SDS011;68171;13.882;99.692;2023-10-19T01:10:55;19.35;;;14.43;;
78820;SDS011;68171;13.882;99.692;2023-10-19T01:12:03;18.33;;;13.00;;
78820;SDS011;68171;13.882;99.692;2023-10-19T01:13:24;16.40;;;12.57;;
78820;SDS011;68171;13.882;99.692;2023-10-19T01:14:37;19.85;;;13.93;;
78820;SDS011;68171;13.882;99.692;2023-10-19T01:15:42;18.05;;;13.25;;
78820;SDS011;68171;13.882;99.692;2023-10-19T01:16:52;17.40;;;12.50;;
78820;SDS011;68171;13.882;99.692;2023-10-19T01:18:00;19.38;;;12.95;;
78820;SDS011;68171;13.882;99.692;2023-10-19T01:19:06;15.50;;;11.50;;
78820;SDS011;68171;13.882;99.692;2023-10-19T01:20:12;15.68;;;11.95;;
78820;SDS011;68171;13.882;99.692;2023-10-19T01:21:28;17.08;;;12.90;;
78820;SDS011;68171;13.882;99.692;2023-10-19T01:22:46;16.10;;;11.77;;
78820;SDS011;68171;13.882;99.692;2023-10-19T01:24:10;17.38;;;12.00;;
78820;SDS011;68171;13.882;99.692;2023-10-19T01:25:20;15.10;;;11.68;;
78820;SDS011;68171;13.882;99.692;2023-10-19T01:26:37;17.73;;;11.27;;
78820;SDS011;68171;13.882;99.692;2023-10-19T01:27:42;16.45;;;12.88;;
78820;SDS011;68171;13.882;99.692;2023-10-19T01:28:50;17.33;;;12.20;;
78820;SDS011;68171;13.882;99.692;2023-10-19T01:29:56;16.52;;;12.20;;
78820;SDS011;68171;13.882;99.692;2023-10-19T01:31:06;16.45;;;12.00;;
78820;SDS011;68171;13.882;99.692;2023-10-19T01:32:11;15.70;;;11.57;;
78820;SDS011;68171;13.882;99.692;2023-10-19T01:33:19;16.40;;;11.88;;
78820;SDS011;68171;13.882;99.692;2023-10-19T01:34:25;15.10;;;12.00;;
78820;SDS011;68171;13.882;99.692;2023-10-19T01:35:32;15.07;;;11.80;;
78820;SDS011;68171;13.882;99.692;2023-10-19T01:36:52;23.33;;;11.48;;
78820;SDS011;68171;13.882;99.692;2023-10-19T01:38:00;15.88;;;11.35;;
78820;SDS011;68171;13.882;99.692;2023-10-19T01:39:07;16.42;;;11.63;;
78820;SDS011;68171;13.882;99.692;2023-10-19T01:40:13;17.67;;;11.37;;
78820;SDS011;68171;13.882;99.692;2023-10-19T01:41:24;15.25;;;11.65;;
78820;SDS011;68171;13.882;99.692;2023-10-19T01:42:31;20.60;;;11.80;;
78820;SDS011;68171;13.882;99.692;2023-10-19T01:43:36;15.77;;;11.18;;
78820;SDS011;68171;13.882;99.692;2023-10-19T01:44:43;15.82;;;12.25;;
78820;SDS011;68171;13.882;99.692;2023-10-19T01:45:52;16.85;;;11.90;;
78820;SDS011;68171;13.882;99.692;2023-10-19T01:46:58;17.20;;;11.68;;
78820;SDS011;68171;13.882;99.692;2023-10-19T01:48:05;15.27;;;11.88;;
78820;SDS011;68171;13.882;99.692;2023-10-19T01:49:12;16.50;;;11.55;;
78820;SDS011;68171;13.882;99.692;2023-10-19T01:50:17;15.63;;;11.38;;
78820;SDS011;68171;13.882;99.692;2023-10-19T01:51:23;16.43;;;10.73;;
78820;SDS011;68171;13.882;99.692;2023-10-19T01:52:37;17.48;;;11.57;;
78820;SDS011;68171;13.882;99.692;2023-10-19T01:53:44;16.10;;;11.60;;
78820;SDS011;68171;13.882;99.692;2023-10-19T01:54:50;14.45;;;11.32;;
78820;SDS011;68171;13.882;99.692;2023-10-19T01:56:04;15.40;;;11.68;;
78820;SDS011;68171;13.882;99.692;2023-10-19T01:57:14;16.45;;;11.38;;
78820;SDS011;68171;13.882;99.692;2023-10-19T01:58:20;15.23;;;10.90;;
78820;SDS011;68171;13.882;99.692;2023-10-19T01:59:28;17.02;;;11.50;;
78820;SDS011;68171;13.882;99.692;2023-10-19T02:00:33;14.52;;;11.93;;
78820;SDS011;68171;13.882;99.692;2023-10-19T02:01:42;17.73;;;12.25;;
78820;SDS011;68171;13.882;99.692;2023-10-19T02:02:49;16.77;;;11.40;;
78820;SDS011;68171;13.882;99.692;2023-10-19T02:03:54;16.80;;;12.13;;
78820;SDS011;68171;13.882;99.692;2023-10-19T02:05:02;14.95;;;11.07;;
78820;SDS011;68171;13.882;99.692;2023-10-19T02:06:16;14.80;;;11.65;;
78820;SDS011;68171;13.882;99.692;2023-10-19T02:07:24;18.38;;;12.45;;
78820;SDS011;68171;13.882;99.692;2023-10-19T02:08:29;14.77;;;10.98;;
78820;SDS011;68171;13.882;99.692;2023-10-19T02:09:37;14.50;;;10.80;;
78820;SDS011;68171;13.882;99.692;2023-10-19T02:10:46;17.23;;;10.82;;
78820;SDS011;68171;13.882;99.692;2023-10-19T02:11:52;17.48;;;11.82;;
78820;SDS011;68171;13.882;99.692;2023-10-19T02:13:00;15.50;;;11.80;;
78820;SDS011;68171;13.882;99.692;2023-10-19T02:14:09;15.47;;;11.23;;
78820;SDS011;68171;13.882;99.692;2023-10-19T02:15:19;14.35;;;11.30;;
78820;SDS011;68171;13.882;99.692;2023-10-19T02:16:26;14.07;;;10.77;;
78820;SDS011;68171;13.882;99.692;2023-10-19T02:17:33;16.35;;;11.32;;
78820;SDS011;68171;13.882;99.692;2023-10-19T02:18:39;13.73;;;10.90;;
78820;SDS011;68171;13.882;99.692;2023-10-19T02:19:46;14.00;;;10.57;;
78820;SDS011;68171;13.882;99.692;2023-10-19T02:20:52;21.40;;;12.05;;
78820;SDS011;68171;13.882;99.692;2023-10-19T02:22:02;14.50;;;10.82;;
78820;SDS011;68171;13.882;99.692;2023-10-19T02:23:13;14.60;;;10.30;;
78820;SDS011;68171;13.882;99.692;2023-10-19T02:24:21;14.27;;;10.30;;
78820;SDS011;68171;13.882;99.692;2023-10-19T02:25:29;18.50;;;11.13;;
78820;SDS011;68171;13.882;99.692;2023-10-19T02:26:54;15.20;;;10.80;;
78820;SDS011;68171;13.882;99.692;2023-10-19T02:28:02;13.60;;;10.70;;
78820;SDS011;68171;13.882;99.692;2023-10-19T02:29:10;15.20;;;10.95;;
78820;SDS011;68171;13.882;99.692;2023-10-19T02:30:16;13.50;;;10.48;;
78820;SDS011;68171;13.882;99.692;2023-10-19T02:31:22;15.27;;;10.48;;
78820;SDS011;68171;13.882;99.692;2023-10-19T02:32:29;13.60;;;10.57;;
78820;SDS011;68171;13.882;99.692;2023-10-19T02:33:36;13.82;;;11.05;;
78820;SDS011;68171;13.882;99.692;2023-10-19T02:34:43;15.48;;;11.25;;
78820;SDS011;68171;13.882;99.692;2023-10-19T02:35:49;15.23;;;11.63;;
78820;SDS011;68171;13.882;99.692;2023-10-19T02:36:55;15.53;;;11.03;;
78820;SDS011;68171;13.882;99.692;2023-10-19T02:38:01;15.23;;;11.57;;
78820;SDS011;68171;13.882;99.692;2023-10-19T02:39:08;15.88;;;12.27;;
78820;SDS011;68171;13.882;99.692;2023-10-19T02:40:13;16.67;;;12.05;;
78820;SDS011;68171;13.882;99.692;2023-10-19T02:41:28;17.83;;;13.13;;
78820;SDS011;68171;13.882;99.692;2023-10-19T02:42:33;16.17;;;11.82;;
78820;SDS011;68171;13.882;99.692;2023-10-19T02:43:38;16.95;;;12.48;;
78820;SDS011;68171;13.882;99.692;2023-10-19T02:44:43;14.77;;;12.00;;
78820;SDS011;68171;13.882;99.692;2023-10-19T02:45:50;17.65;;;12.57;;
78820;SDS011;68171;13.882;99.692;2023-10-19T02:46:56;16.58;;;12.10;;
78820;SDS011;68171;13.882;99.692;2023-10-19T02:48:02;18.10;;;13.17;;
78820;SDS011;68171;13.882;99.692;2023-10-19T02:49:08;18.15;;;13.48;;
78820;SDS011;68171;13.882;99.692;2023-10-19T02:50:17;21.80;;;13.93;;
78820;SDS011;68171;13.882;99.692;2023-10-19T02:51:26;20.20;;;13.75;;
78820;SDS011;68171;13.882;99.692;2023-10-19T02:52:31;17.60;;;13.30;;
78820;SDS011;68171;13.882;99.692;2023-10-19T02:53:38;18.20;;;14.00;;
78820;SDS011;68171;13.882;99.692;2023-10-19T02:54:44;20.27;;;14.13;;
78820;SDS011;68171;13.882;99.692;2023-10-19T02:55:49;17.95;;;13.90;;
78820;SDS011;68171;13.882;99.692;2023-10-19T02:56:58;19.33;;;14.73;;
78820;SDS011;68171;13.882;99.692;2023-10-19T02:58:03;21.25;;;15.45;;
78820;SDS011;68171;13.882;99.692;2023-10-19T02:59:09;21.13;;;14.10;;
78820;SDS011;68171;13.882;99.692;2023-10-19T03:00:14;18.15;;;13.63;;
78820;SDS011;68171;13.882;99.692;2023-10-19T03:01:25;19.33;;;15.68;;
78820;SDS011;68171;13.882;99.692;2023-10-19T03:03:01;20.25;;;14.73;;
78820;SDS011;68171;13.882;99.692;2023-10-19T03:04:10;21.65;;;15.02;;
78820;SDS011;68171;13.882;99.692;2023-10-19T03:05:16;18.27;;;14.52;;
78820;SDS011;68171;13.882;99.692;2023-10-19T03:06:21;19.67;;;14.07;;
78820;SDS011;68171;13.882;99.692;2023-10-19T03:07:29;19.02;;;14.30;;
78820;SDS011;68171;13.882;99.692;2023-10-19T03:08:34;18.20;;;13.57;;
78820;SDS011;68171;13.882;99.692;2023-10-19T03:09:39;21.10;;;14.02;;
78820;SDS011;68171;13.882;99.692;2023-10-19T03:10:51;20.33;;;14.70;;
78820;SDS011;68171;13.882;99.692;2023-10-19T03:12:08;20.60;;;14.93;;
78820;SDS011;68171;13.882;99.692;2023-10-19T03:13:13;22.80;;;15.15;;
78820;SDS011;68171;13.882;99.692;2023-10-19T03:14:22;20.13;;;14.18;;
78820;SDS011;68171;13.882;99.692;2023-10-19T03:15:29;20.70;;;14.60;;
78820;SDS011;68171;13.882;99.692;2023-10-19T03:16:36;20.65;;;15.82;;
78820;SDS011;68171;13.882;99.692;2023-10-19T03:17:44;19.40;;;14.80;;
78820;SDS011;68171;13.882;99.692;2023-10-19T03:18:54;18.83;;;14.90;;
78820;SDS011;68171;13.882;99.692;2023-10-19T03:19:59;21.05;;;15.75;;
78820;SDS011;68171;13.882;99.692;2023-10-19T03:21:05;20.75;;;15.10;;
78820;SDS011;68171;13.882;99.692;2023-10-19T03:22:14;19.30;;;14.10;;
78820;SDS011;68171;13.882;99.692;2023-10-19T03:23:20;21.20;;;15.02;;
78820;SDS011;68171;13.882;99.692;2023-10-19T03:24:25;18.10;;;13.93;;
78820;SDS011;68171;13.882;99.692;2023-10-19T03:25:44;21.60;;;14.45;;
78820;SDS011;68171;13.882;99.692;2023-10-19T03:26:53;21.42;;;13.68;;
78820;SDS011;68171;13.882;99.692;2023-10-19T03:28:04;19.27;;;13.95;;
78820;SDS011;68171;13.882;99.692;2023-10-19T03:29:12;20.77;;;14.82;;
78820;SDS011;68171;13.882;99.692;2023-10-19T03:30:18;18.17;;;13.60;;
78820;SDS011;68171;13.882;99.692;2023-10-19T03:31:26;19.00;;;13.70;;
78820;SDS011;68171;13.882;99.692;2023-10-19T03:32:33;18.65;;;13.07;;
78820;SDS011;68171;13.882;99.692;2023-10-19T03:33:39;18.17;;;14.23;;
78820;SDS011;68171;13.882;99.692;2023-10-19T03:34:46;20.20;;;13.52;;
78820;SDS011;68171;13.882;99.692;2023-10-19T03:36:04;21.02;;;13.75;;
78820;SDS011;68171;13.882;99.692;2023-10-19T03:37:16;19.27;;;13.55;;
78820;SDS011;68171;13.882;99.692;2023-10-19T03:38:23;18.17;;;13.65;;
78820;SDS011;68171;13.882;99.692;2023-10-19T03:39:28;19.38;;;13.88;;
78820;SDS011;68171;13.882;99.692;2023-10-19T03:40:37;17.13;;;13.10;;
78820;SDS011;68171;13.882;99.692;2023-10-19T03:41:42;17.58;;;13.00;;
78820;SDS011;68171;13.882;99.692;2023-10-19T03:42:49;18.23;;;14.35;;
78820;SDS011;68171;13.882;99.692;2023-10-19T03:43:58;18.27;;;13.50;;
78820;SDS011;68171;13.882;99.692;2023-10-19T03:45:05;17.40;;;13.10;;
78820;SDS011;68171;13.882;99.692;2023-10-19T03:46:16;16.70;;;12.20;;
78820;SDS011;68171;13.882;99.692;2023-10-19T03:47:32;16.42;;;12.38;;
78820;SDS011;68171;13.882;99.692;2023-10-19T03:48:38;17.15;;;13.25;;
78820;SDS011;68171;13.882;99.692;2023-10-19T03:49:47;17.67;;;13.40;;
78820;SDS011;68171;13.882;99.692;2023-10-19T03:50:52;16.77;;;13.10;;
78820;SDS011;68171;13.882;99.692;2023-10-19T03:51:59;17.20;;;12.80;;
78820;SDS011;68171;13.882;99.692;2023-10-19T03:53:23;17.85;;;13.20;;
78820;SDS011;68171;13.882;99.692;2023-10-19T03:54:29;19.83;;;12.88;;
78820;SDS011;68171;13.882;99.692;2023-10-19T03:55:36;15.60;;;12.35;;
78820;SDS011;68171;13.882;99.692;2023-10-19T03:56:48;19.60;;;12.10;;
78820;SDS011;68171;13.882;99.692;2023-10-19T03:57:54;17.10;;;12.30;;
78820;SDS011;68171;13.882;99.692;2023-10-19T03:59:00;17.88;;;12.70;;
78820;SDS011;68171;13.882;99.692;2023-10-19T04:00:06;16.23;;;12.43;;
78820;SDS011;68171;13.882;99.692;2023-10-19T04:01:19;17.38;;;12.65;;
78820;SDS011;68171;13.882;99.692;2023-10-19T04:02:25;16.40;;;11.95;;
78820;SDS011;68171;13.882;99.692;2023-10-19T04:03:33;16.45;;;12.60;;
78820;SDS011;68171;13.882;99.692;2023-10-19T04:04:40;16.25;;;12.02;;
78820;SDS011;68171;13.882;99.692;2023-10-19T04:05:53;15.43;;;12.38;;
78820;SDS011;68171;13.882;99.692;2023-10-19T04:06:58;19.17;;;12.38;;
78820;SDS011;68171;13.882;99.692;2023-10-19T04:08:14;15.07;;;12.03;;
78820;SDS011;68171;13.882;99.692;2023-10-19T04:09:23;16.02;;;12.13;;
78820;SDS011;68171;13.882;99.692;2023-10-19T04:10:32;16.45;;;11.75;;
78820;SDS011;68171;13.882;99.692;2023-10-19T04:11:42;15.10;;;11.43;;
78820;SDS011;68171;13.882;99.692;2023-10-19T04:12:55;16.08;;;12.20;;
78820;SDS011;68171;13.882;99.692;2023-10-19T04:14:03;15.73;;;11.43;;
78820;SDS011;68171;13.882;99.692;2023-10-19T04:15:14;15.43;;;11.77;;
78820;SDS011;68171;13.882;99.692;2023-10-19T04:16:20;15.95;;;12.30;;
78820;SDS011;68171;13.882;99.692;2023-10-19T04:17:26;17.08;;;12.57;;
78820;SDS011;68171;13.882;99.692;2023-10-19T04:18:32;16.40;;;12.02;;
78820;SDS011;68171;13.882;99.692;2023-10-19T04:19:43;15.83;;;11.73;;
78820;SDS011;68171;13.882;99.692;2023-10-19T04:20:48;17.20;;;12.15;;
78820;SDS011;68171;13.882;99.692;2023-10-19T04:22:03;16.00;;;12.23;;
78820;SDS011;68171;13.882;99.692;2023-10-19T04:23:08;16.48;;;12.32;;
78820;SDS011;68171;13.882;99.692;2023-10-19T04:24:20;20.40;;;12.10;;
78820;SDS011;68171;13.882;99.692;2023-10-19T04:25:25;15.10;;;11.70;;
78820;SDS011;68171;13.882;99.692;2023-10-19T04:26:33;15.43;;;11.65;;
78820;SDS011;68171;13.882;99.692;2023-10-19T04:27:40;15.05;;;12.10;;
78820;SDS011;68171;13.882;99.692;2023-10-19T04:28:46;19.20;;;13.68;;
78820;SDS011;68171;13.882;99.692;2023-10-19T04:29:56;16.35;;;12.00;;
78820;SDS011;68171;13.882;99.692;2023-10-19T04:31:01;17.47;;;12.73;;
78820;SDS011;68171;13.882;99.692;2023-10-19T04:32:10;14.65;;;12.02;;
78820;SDS011;68171;13.882;99.692;2023-10-19T04:33:17;16.60;;;12.68;;
78820;SDS011;68171;13.882;99.692;2023-10-19T04:34:25;18.48;;;12.48;;
78820;SDS011;68171;13.882;99.692;2023-10-19T04:35:32;19.60;;;13.10;;
78820;SDS011;68171;13.882;99.692;2023-10-19T04:36:37;17.73;;;13.38;;
78820;SDS011;68171;13.882;99.692;2023-10-19T04:37:48;18.63;;;12.25;;
78820;SDS011;68171;13.882;99.692;2023-10-19T04:38:54;18.10;;;13.70;;
78820;SDS011;68171;13.882;99.692;2023-10-19T04:40:01;18.38;;;12.90;;
78820;SDS011;68171;13.882;99.692;2023-10-19T04:41:07;15.02;;;12.57;;
78820;SDS011;68171;13.882;99.692;2023-10-19T04:42:14;17.67;;;12.63;;
78820;SDS011;68171;13.882;99.692;2023-10-19T04:43:19;16.50;;;12.30;;
78820;SDS011;68171;13.882;99.692;2023-10-19T04:44:27;15.23;;;12.32;;
78820;SDS011;68171;13.882;99.692;2023-10-19T04:45:33;17.48;;;12.57;;
78820;SDS011;68171;13.882;99.692;2023-10-19T04:46:41;16.52;;;11.98;;
78820;SDS011;68171;13.882;99.692;2023-10-19T04:47:49;17.73;;;13.18;;
78820;SDS011;68171;13.882;99.692;2023-10-19T04:48:58;18.00;;;13.45;;
78820;SDS011;68171;13.882;99.692;2023-10-19T04:50:04;16.42;;;12.75;;
78820;SDS011;68171;13.882;99.692;2023-10-19T04:51:16;16.77;;;12.45;;
78820;SDS011;68171;13.882;99.692;2023-10-19T04:52:21;16.38;;;13.35;;
78820;SDS011;68171;13.882;99.692;2023-10-19T04:53:30;15.40;;;11.83;;
78820;SDS011;68171;13.882;99.692;2023-10-19T04:54:36;18.23;;;12.60;;
78820;SDS011;68171;13.882;99.692;2023-10-19T04:55:42;18.27;;;12.90;;
78820;SDS011;68171;13.882;99.692;2023-10-19T04:56:48;16.67;;;11.90;;
78820;SDS011;68171;13.882;99.692;2023-10-19T04:58:02;15.88;;;12.32;;
78820;SDS011;68171;13.882;99.692;2023-10-19T04:59:09;18.05;;;12.77;;
78820;SDS011;68171;13.882;99.692;2023-10-19T05:00:16;17.58;;;12.95;;
78820;SDS011;68171;13.882;99.692;2023-10-19T05:01:24;16.35;;;12.00;;
78820;SDS011;68171;13.882;99.692;2023-10-19T05:02:31;16.52;;;13.35;;
78820;SDS011;68171;13.882;99.692;2023-10-19T05:03:37;16.75;;;13.05;;
78820;SDS011;68171;13.882;99.692;2023-10-19T05:04:44;16.50;;;12.27;;
78820;SDS011;68171;13.882;99.692;2023-10-19T05:05:49;15.77;;;12.50;;
78820;SDS011;68171;13.882;99.692;2023-10-19T05:06:55;17.13;;;12.40;;
78820;SDS011;68171;13.882;99.692;2023-10-19T05:08:01;16.35;;;12.70;;
78820;SDS011;68171;13.882;99.692;2023-10-19T05:09:09;15.00;;;11.88;;
78820;SDS011;68171;13.882;99.692;2023-10-19T05:10:17;17.77;;;13.40;;
78820;SDS011;68171;13.882;99.692;2023-10-19T05:11:23;19.95;;;12.05;;
78820;SDS011;68171;13.882;99.692;2023-10-19T05:12:31;15.50;;;12.20;;
78820;SDS011;68171;13.882;99.692;2023-10-19T05:13:36;15.75;;;12.80;;
78820;SDS011;68171;13.882;99.692;2023-10-19T05:14:43;15.90;;;11.82;;
78820;SDS011;68171;13.882;99.692;2023-10-19T05:15:49;19.13;;;12.33;;
78820;SDS011;68171;13.882;99.692;2023-10-19T05:16:56;17.33;;;11.90;;
78820;SDS011;68171;13.882;99.692;2023-10-19T05:18:02;16.80;;;13.75;;
78820;SDS011;68171;13.882;99.692;2023-10-19T05:19:09;15.95;;;13.43;;
78820;SDS011;68171;13.882;99.692;2023-10-19T05:20:15;16.13;;;13.05;;
78820;SDS011;68171;13.882;99.692;2023-10-19T05:21:22;15.88;;;13.00;;
78820;SDS011;68171;13.882;99.692;2023-10-19T05:22:27;16.63;;;12.55;;
78820;SDS011;68171;13.882;99.692;2023-10-19T05:23:36;16.02;;;13.10;;
78820;SDS011;68171;13.882;99.692;2023-10-19T05:24:43;16.83;;;12.77;;
78820;SDS011;68171;13.882;99.692;2023-10-19T05:25:51;17.83;;;13.38;;
78820;SDS011;68171;13.882;99.692;2023-10-19T05:26:57;14.93;;;12.33;;
78820;SDS011;68171;13.882;99.692;2023-10-19T05:28:05;17.13;;;12.13;;
78820;SDS011;68171;13.882;99.692;2023-10-19T05:29:11;18.50;;;14.00;;
78820;SDS011;68171;13.882;99.692;2023-10-19T05:30:17;19.38;;;13.35;;
78820;SDS011;68171;13.882;99.692;2023-10-19T05:31:25;17.27;;;13.15;;
78820;SDS011;68171;13.882;99.692;2023-10-19T05:32:35;16.80;;;13.10;;
78820;SDS011;68171;13.882;99.692;2023-10-19T05:33:41;14.43;;;12.23;;
78820;SDS011;68171;13.882;99.692;2023-10-19T05:34:48;15.85;;;12.82;;
78820;SDS011;68171;13.882;99.692;2023-10-19T05:35:53;17.52;;;13.70;;
78820;SDS011;68171;13.882;99.692;2023-10-19T05:36:59;18.60;;;14.15;;
78820;SDS011;68171;13.882;99.692;2023-10-19T05:38:05;16.07;;;12.57;;
78820;SDS011;68171;13.882;99.692;2023-10-19T05:39:12;16.30;;;13.13;;
78820;SDS011;68171;13.882;99.692;2023-10-19T05:40:20;17.90;;;12.98;;
78820;SDS011;68171;13.882;99.692;2023-10-19T05:41:27;16.00;;;12.75;;
78820;SDS011;68171;13.882;99.692;2023-10-19T05:42:36;16.88;;;12.95;;
78820;SDS011;68171;13.882;99.692;2023-10-19T05:43:42;17.30;;;13.75;;
78820;SDS011;68171;13.882;99.692;2023-10-19T05:44:47;16.83;;;12.60;;
78820;SDS011;68171;13.882;99.692;2023-10-19T05:45:55;17.52;;;12.90;;
78820;SDS011;68171;13.882;99.692;2023-10-19T05:47:00;16.67;;;12.95;;
78820;SDS011;68171;13.882;99.692;2023-10-19T05:48:07;18.08;;;12.30;;
78820;SDS011;68171;13.882;99.692;2023-10-19T05:49:16;16.70;;;12.70;;
78820;SDS011;68171;13.882;99.692;2023-10-19T05:50:23;15.13;;;12.80;;
78820;SDS011;68171;13.882;99.692;2023-10-19T05:51:29;18.48;;;13.05;;
78820;SDS011;68171;13.882;99.692;2023-10-19T05:52:37;16.33;;;12.40;;
78820;SDS011;68171;13.882;99.692;2023-10-19T05:53:42;16.90;;;13.25;;
78820;SDS011;68171;13.882;99.692;2023-10-19T05:54:49;17.48;;;13.00;;
78820;SDS011;68171;13.882;99.692;2023-10-19T05:55:57;16.17;;;12.00;;
78820;SDS011;68171;13.882;99.692;2023-10-19T05:57:04;15.77;;;11.60;;
78820;SDS011;68171;13.882;99.692;2023-10-19T05:58:13;15.25;;;11.98;;
78820;SDS011;68171;13.882;99.692;2023-10-19T05:59:20;16.13;;;12.55;;
78820;SDS011;68171;13.882;99.692;2023-10-19T06:00:27;16.23;;;11.53;;
78820;SDS011;68171;13.882;99.692;2023-10-19T06:01:34;14.33;;;11.60;;
78820;SDS011;68171;13.882;99.692;2023-10-19T06:02:43;14.88;;;11.55;;
78820;SDS011;68171;13.882;99.692;2023-10-19T06:03:50;15.18;;;12.25;;
78820;SDS011;68171;13.882;99.692;2023-10-19T06:04:56;15.82;;;10.82;;
78820;SDS011;68171;13.882;99.692;2023-10-19T06:06:03;14.55;;;11.30;;
78820;SDS011;68171;13.882;99.692;2023-10-19T06:07:08;15.88;;;11.73;;
78820;SDS011;68171;13.882;99.692;2023-10-19T06:08:15;16.38;;;11.60;;
78820;SDS011;68171;13.882;99.692;2023-10-19T06:09:21;14.50;;;11.10;;
78820;SDS011;68171;13.882;99.692;2023-10-19T06:10:50;14.63;;;11.25;;
78820;SDS011;68171;13.882;99.692;2023-10-19T06:11:59;14.33;;;11.33;;
78820;SDS011;68171;13.882;99.692;2023-10-19T06:13:04;15.63;;;11.47;;
78820;SDS011;68171;13.882;99.692;2023-10-19T06:14:13;13.95;;;11.10;;
78820;SDS011;68171;13.882;99.692;2023-10-19T06:15:19;16.13;;;12.38;;
78820;SDS011;68171;13.882;99.692;2023-10-19T06:16:28;17.40;;;11.88;;
78820;SDS011;68171;13.882;99.692;2023-10-19T06:17:34;14.43;;;11.18;;
78820;SDS011;68171;13.882;99.692;2023-10-19T06:18:41;15.20;;;11.73;;
78820;SDS011;68171;13.882;99.692;2023-10-19T06:19:47;15.27;;;11.27;;
78820;SDS011;68171;13.882;99.692;2023-10-19T06:20:54;16.40;;;11.75;;
78820;SDS011;68171;13.882;99.692;2023-10-19T06:22:00;16.05;;;11.35;;
78820;SDS011;68171;13.882;99.692;2023-10-19T06:23:07;16.40;;;11.47;;
78820;SDS011;68171;13.882;99.692;2023-10-19T06:24:13;15.67;;;11.90;;
78820;SDS011;68171;13.882;99.692;2023-10-19T06:25:21;16.23;;;12.23;;
78820;SDS011;68171;13.882;99.692;2023-10-19T06:26:30;15.23;;;11.57;;
78820;SDS011;68171;13.882;99.692;2023-10-19T06:27:38;13.82;;;10.60;;
78820;SDS011;68171;13.882;99.692;2023-10-19T06:28:44;14.63;;;11.60;;
78820;SDS011;68171;13.882;99.692;2023-10-19T06:29:50;14.23;;;11.27;;
78820;SDS011;68171;13.882;99.692;2023-10-19T06:30:56;15.13;;;11.85;;
78820;SDS011;68171;13.882;99.692;2023-10-19T06:32:03;13.35;;;10.93;;
78820;SDS011;68171;13.882;99.692;2023-10-19T06:33:09;15.13;;;11.40;;
78820;SDS011;68171;13.882;99.692;2023-10-19T06:34:17;13.87;;;11.43;;